Time,TemperatureF,DewpointF,PressureIn,WindDirection,WindDirectionDegrees,WindSpeedMPH,WindSpeedGustMPH,Humidity,HourlyPrecipIn,Conditions,Clouds,dailyrainin,SoftwareType,DateUTC
2013-05-25 00:02:00,53.4,51.1,30.24,NW,314,0.0,0.0,92,0.03,,,0.19,meteohub,2013-05-25 05:02:00,
2013-05-25 00:07:00,53.4,51.1,30.24,NW,313,0.0,0.0,92,0.02,,,0.19,meteohub,2013-05-25 05:07:00,
2013-05-25 00:12:00,53.2,50.9,30.24,NW,313,0.0,0.0,92,0.02,,,0.19,meteohub,2013-05-25 05:12:00,
2013-05-25 00:17:00,53.2,50.9,30.24,NW,314,0.0,0.0,92,0.02,,,0.19,meteohub,2013-05-25 05:17:00,
2013-05-25 00:22:00,53.4,51.1,30.24,NW,313,0.0,0.0,92,0.02,,,0.19,meteohub,2013-05-25 05:22:00,
2013-05-25 00:27:00,53.4,51.1,30.24,NW,313,0.0,0.0,92,0.01,,,0.19,meteohub,2013-05-25 05:27:00,
2013-05-25 00:32:00,53.4,51.1,30.24,NW,313,0.0,0.0,92,0.01,,,0.19,meteohub,2013-05-25 05:32:00,
2013-05-25 00:37:00,53.4,51.1,30.23,NW,314,0.0,0.0,92,0.02,,,0.20,meteohub,2013-05-25 05:37:00,
2013-05-25 00:42:00,53.2,50.9,30.23,NW,314,0.0,0.0,92,0.01,,,0.20,meteohub,2013-05-25 05:42:00,
2013-05-25 00:47:00,53.1,50.7,30.23,NW,313,0.0,0.0,92,0.01,,,0.20,meteohub,2013-05-25 05:47:00,
2013-05-25 00:52:00,53.1,50.7,30.23,NW,313,0.0,1.0,92,0.01,,,0.20,meteohub,2013-05-25 05:52:00,
2013-05-25 00:57:00,53.1,50.7,30.23,NW,313,0.0,1.0,92,0.01,,,0.20,meteohub,2013-05-25 05:57:00,
2013-05-25 01:02:00,52.9,50.5,30.23,NW,313,0.0,0.0,92,0.01,,,0.20,meteohub,2013-05-25 06:02:00,
2013-05-25 01:07:00,52.9,50.5,30.22,NW,312,0.0,1.0,92,0.01,,,0.20,meteohub,2013-05-25 06:07:00,
2013-05-25 01:12:00,52.9,50.5,30.22,NW,307,0.0,1.0,92,0.01,,,0.20,meteohub,2013-05-25 06:12:00,
2013-05-25 01:17:00,52.9,50.5,30.22,NW,307,0.0,1.0,92,0.01,,,0.20,meteohub,2013-05-25 06:17:00,
2013-05-25 01:22:00,52.9,50.5,30.23,NW,307,0.0,2.0,92,0.01,,,0.20,meteohub,2013-05-25 06:22:00,
2013-05-25 01:27:00,52.9,50.5,30.23,NW,307,0.0,2.0,92,0.01,,,0.20,meteohub,2013-05-25 06:27:00,
2013-05-25 01:32:00,53.1,50.7,30.23,NW,307,0.0,2.0,92,0.01,,,0.20,meteohub,2013-05-25 06:32:00,
2013-05-25 01:37:00,53.1,50.7,30.24,NW,307,0.0,0.0,92,0.00,,,0.20,meteohub,2013-05-25 06:37:00,
2013-05-25 01:42:00,53.1,50.7,30.23,NW,307,0.0,0.0,92,0.00,,,0.20,meteohub,2013-05-25 06:42:00,
2013-05-25 01:47:00,52.9,50.5,30.23,NW,307,0.0,0.0,92,0.00,,,0.20,meteohub,2013-05-25 06:47:00,
2013-05-25 01:52:00,52.9,50.5,30.22,NW,307,0.0,1.0,92,0.00,,,0.20,meteohub,2013-05-25 06:52:00,
2013-05-25 01:57:00,52.7,50.4,30.22,NW,307,0.0,1.0,92,0.00,,,0.20,meteohub,2013-05-25 06:57:00,
2013-05-25 02:02:00,52.7,50.4,30.22,NW,307,0.0,1.0,92,0.00,,,0.20,meteohub,2013-05-25 07:02:00,
2013-05-25 02:07:00,52.5,50.2,30.22,NW,307,0.0,0.0,92,0.00,,,0.20,meteohub,2013-05-25 07:07:00,
2013-05-25 02:12:00,52.5,50.2,30.22,NW,307,0.0,0.0,92,0.00,,,0.20,meteohub,2013-05-25 07:12:00,
2013-05-25 02:17:00,52.7,50.4,30.22,NW,307,0.0,0.0,92,0.00,,,0.20,meteohub,2013-05-25 07:17:00,
2013-05-25 02:22:00,52.7,50.4,30.22,NW,307,0.0,0.0,92,0.00,,,0.20,meteohub,2013-05-25 07:22:00,
2013-05-25 02:27:00,52.5,50.2,30.21,NW,307,0.0,1.0,92,0.00,,,0.20,meteohub,2013-05-25 07:27:00,
2013-05-25 02:32:00,52.5,50.2,30.20,NW,307,0.0,1.0,92,0.00,,,0.20,meteohub,2013-05-25 07:32:00,
2013-05-25 02:37:00,52.5,50.2,30.20,NW,307,0.0,1.0,92,0.00,,,0.20,meteohub,2013-05-25 07:37:00,
2013-05-25 02:42:00,52.5,50.2,30.21,NW,307,0.0,1.0,92,0.00,,,0.20,meteohub,2013-05-25 07:42:00,
2013-05-25 02:47:00,52.3,50.0,30.21,NW,307,0.0,1.0,92,0.00,,,0.20,meteohub,2013-05-25 07:47:00,
2013-05-25 02:52:00,52.5,50.2,30.21,NW,307,0.0,1.0,92,0.00,,,0.20,meteohub,2013-05-25 07:52:00,
2013-05-25 02:57:00,52.3,50.0,30.21,NW,307,0.0,0.0,92,0.00,,,0.20,meteohub,2013-05-25 07:57:00,
2013-05-25 03:02:00,52.5,50.2,30.20,West,276,0.0,0.0,92,0.00,,,0.20,meteohub,2013-05-25 08:02:00,
2013-05-25 03:07:00,52.5,50.2,30.20,West,276,0.0,2.0,92,0.00,,,0.20,meteohub,2013-05-25 08:07:00,
2013-05-25 03:12:00,52.5,50.0,30.20,West,276,0.0,2.0,91,0.00,,,0.20,meteohub,2013-05-25 08:12:00,
2013-05-25 03:17:00,52.5,50.0,30.21,SW,235,0.0,2.0,91,0.00,,,0.20,meteohub,2013-05-25 08:17:00,
2013-05-25 03:22:00,52.5,50.0,30.21,SW,234,0.0,2.0,91,0.00,,,0.20,meteohub,2013-05-25 08:22:00,
2013-05-25 03:27:00,52.5,50.0,30.21,SW,234,0.0,2.0,91,0.00,,,0.20,meteohub,2013-05-25 08:27:00,
2013-05-25 03:32:00,52.7,50.2,30.21,SW,232,0.0,0.0,91,0.00,,,0.20,meteohub,2013-05-25 08:32:00,
2013-05-25 03:37:00,52.7,50.2,30.21,South,180,0.0,4.0,91,0.00,,,0.20,meteohub,2013-05-25 08:37:00,
2013-05-25 03:42:00,52.7,50.2,30.21,South,180,0.0,4.0,91,0.00,,,0.20,meteohub,2013-05-25 08:42:00,
2013-05-25 03:47:00,52.7,50.2,30.20,South,180,0.0,4.0,91,0.00,,,0.20,meteohub,2013-05-25 08:47:00,
2013-05-25 03:52:00,52.7,50.2,30.21,South,180,0.0,1.0,91,0.00,,,0.20,meteohub,2013-05-25 08:52:00,
2013-05-25 03:57:00,52.9,50.0,30.22,South,180,0.0,2.0,90,0.00,,,0.20,meteohub,2013-05-25 08:57:00,
2013-05-25 04:02:00,52.9,50.0,30.21,South,179,0.0,2.0,90,0.00,,,0.20,meteohub,2013-05-25 09:02:00,
2013-05-25 04:07:00,52.9,50.0,30.21,South,176,0.0,1.0,90,0.00,,,0.20,meteohub,2013-05-25 09:07:00,
2013-05-25 04:12:00,52.9,50.0,30.21,South,176,0.0,3.0,90,0.00,,,0.20,meteohub,2013-05-25 09:12:00,
2013-05-25 04:17:00,52.9,50.0,30.21,South,175,0.0,3.0,90,0.00,,,0.20,meteohub,2013-05-25 09:17:00,
2013-05-25 04:22:00,52.9,49.6,30.22,South,178,0.0,2.0,89,0.00,,,0.20,meteohub,2013-05-25 09:22:00,
2013-05-25 04:27:00,52.9,49.6,30.22,South,178,0.0,2.0,89,0.00,,,0.20,meteohub,2013-05-25 09:27:00,
2013-05-25 04:32:00,52.9,49.6,30.22,South,178,0.0,1.0,89,0.00,,,0.20,meteohub,2013-05-25 09:32:00,
2013-05-25 04:37:00,52.9,49.6,30.22,South,175,0.0,2.0,89,0.00,,,0.20,meteohub,2013-05-25 09:37:00,
2013-05-25 04:42:00,52.9,49.6,30.22,South,182,0.0,2.0,89,0.00,,,0.20,meteohub,2013-05-25 09:42:00,
2013-05-25 04:47:00,52.9,49.6,30.22,South,181,0.0,2.0,89,0.00,,,0.20,meteohub,2013-05-25 09:47:00,
2013-05-25 04:52:00,52.9,49.6,30.22,WSW,245,0.0,2.0,89,0.00,,,0.20,meteohub,2013-05-25 09:52:00,
2013-05-25 04:57:00,52.9,49.6,30.22,SW,221,0.0,5.0,89,0.00,,,0.20,meteohub,2013-05-25 09:57:00,
2013-05-25 05:02:00,52.9,49.6,30.22,SW,220,0.0,5.0,89,0.00,,,0.20,meteohub,2013-05-25 10:02:00,
2013-05-25 05:07:00,52.9,49.5,30.22,SW,220,0.0,5.0,88,0.00,,,0.20,meteohub,2013-05-25 10:07:00,
2013-05-25 05:12:00,52.7,49.3,30.22,SW,217,0.0,1.0,88,0.00,,,0.20,meteohub,2013-05-25 10:12:00,
2013-05-25 05:17:00,52.9,49.5,30.22,SSW,200,0.0,2.0,88,0.00,,,0.20,meteohub,2013-05-25 10:17:00,
2013-05-25 05:22:00,52.9,49.5,30.21,South,186,0.0,2.0,88,0.00,,,0.20,meteohub,2013-05-25 10:22:00,
2013-05-25 05:27:00,52.9,49.5,30.21,South,172,0.0,4.0,88,0.00,,,0.20,meteohub,2013-05-25 10:27:00,
2013-05-25 05:32:00,52.9,49.1,30.21,South,172,0.0,4.0,87,0.00,,,0.20,meteohub,2013-05-25 10:32:00,
2013-05-25 05:37:00,52.9,49.1,30.21,South,169,0.0,4.0,87,0.00,,,0.20,meteohub,2013-05-25 10:37:00,
2013-05-25 05:42:00,53.1,48.9,30.21,SSE,164,1.0,5.0,86,0.00,,,0.20,meteohub,2013-05-25 10:42:00,
2013-05-25 05:47:00,53.1,48.9,30.20,SSE,158,0.0,5.0,86,0.00,,,0.20,meteohub,2013-05-25 10:47:00,
2013-05-25 05:52:00,53.1,48.9,30.21,South,176,0.0,4.0,86,0.00,,,0.20,meteohub,2013-05-25 10:52:00,
2013-05-25 05:57:00,53.2,48.9,30.21,South,176,0.0,5.0,85,0.00,,,0.20,meteohub,2013-05-25 10:57:00,
2013-05-25 06:02:00,53.2,48.9,30.21,South,176,0.0,5.0,85,0.00,,,0.20,meteohub,2013-05-25 11:02:00,
2013-05-25 06:07:00,53.2,48.6,30.21,South,169,1.0,5.0,84,0.00,,,0.20,meteohub,2013-05-25 11:07:00,
2013-05-25 06:12:00,53.2,48.6,30.21,SSE,168,0.0,2.0,84,0.00,,,0.20,meteohub,2013-05-25 11:12:00,
2013-05-25 06:17:00,53.2,48.6,30.22,South,169,0.0,3.0,84,0.00,,,0.20,meteohub,2013-05-25 11:17:00,
2013-05-25 06:22:00,53.2,48.6,30.22,South,169,0.0,3.0,84,0.00,,,0.20,meteohub,2013-05-25 11:22:00,
2013-05-25 06:27:00,53.2,48.6,30.22,SSE,168,0.0,3.0,84,0.00,,,0.20,meteohub,2013-05-25 11:27:00,
2013-05-25 06:32:00,53.2,48.2,30.23,South,169,0.0,2.0,83,0.01,,,0.21,meteohub,2013-05-25 11:32:00,
2013-05-25 06:37:00,53.4,48.4,30.23,South,169,0.0,3.0,83,0.01,,,0.21,meteohub,2013-05-25 11:37:00,
2013-05-25 06:42:00,53.6,48.6,30.22,SSE,165,1.0,3.0,83,0.01,,,0.21,meteohub,2013-05-25 11:42:00,
2013-05-25 06:47:00,53.8,48.4,30.22,SSW,203,1.0,3.0,82,0.01,,,0.21,meteohub,2013-05-25 11:47:00,
2013-05-25 06:52:00,53.8,48.4,30.23,West,260,0.0,3.0,82,0.01,,,0.21,meteohub,2013-05-25 11:52:00,
2013-05-25 06:57:00,54.0,48.2,30.23,WSW,257,0.0,3.0,81,0.01,,,0.21,meteohub,2013-05-25 11:57:00,
2013-05-25 07:02:00,54.0,48.2,30.23,WSW,256,0.0,2.0,81,0.01,,,0.21,meteohub,2013-05-25 12:02:00,
2013-05-25 07:07:00,54.1,48.4,30.23,SSE,161,0.0,2.0,81,0.01,,,0.21,meteohub,2013-05-25 12:07:00,
2013-05-25 07:12:00,54.1,48.4,30.22,SSW,195,0.0,5.0,81,0.01,,,0.21,meteohub,2013-05-25 12:12:00,
2013-05-25 07:17:00,54.1,48.4,30.22,SW,236,0.0,5.0,81,0.01,,,0.21,meteohub,2013-05-25 12:17:00,
2013-05-25 07:22:00,54.1,48.4,30.22,South,170,0.0,5.0,81,0.01,,,0.21,meteohub,2013-05-25 12:22:00,
2013-05-25 07:27:00,54.3,48.6,30.22,South,169,0.0,4.0,81,0.00,,,0.21,meteohub,2013-05-25 12:27:00,
2013-05-25 07:32:00,54.3,48.6,30.22,SSE,150,0.0,4.0,81,0.00,,,0.21,meteohub,2013-05-25 12:32:00,
2013-05-25 07:37:00,54.3,48.6,30.22,SSE,161,0.0,5.0,81,0.00,,,0.21,meteohub,2013-05-25 12:37:00,
2013-05-25 07:42:00,54.5,48.4,30.22,SSE,161,2.0,5.0,80,0.00,,,0.21,meteohub,2013-05-25 12:42:00,
2013-05-25 07:47:00,54.7,48.6,30.22,South,184,0.0,5.0,80,0.00,,,0.21,meteohub,2013-05-25 12:47:00,
2013-05-25 07:52:00,54.7,48.6,30.22,SSE,162,0.0,4.0,80,0.00,,,0.21,meteohub,2013-05-25 12:52:00,
2013-05-25 07:57:00,54.7,48.6,30.22,SSE,157,0.0,5.0,80,0.00,,,0.21,meteohub,2013-05-25 12:57:00,
2013-05-25 08:02:00,54.9,48.7,30.22,SE,146,0.0,5.0,80,0.00,,,0.21,meteohub,2013-05-25 13:02:00,
2013-05-25 08:07:00,54.9,48.7,30.22,SSW,208,3.0,5.0,80,0.00,,,0.21,meteohub,2013-05-25 13:07:00,
2013-05-25 08:12:00,54.9,48.7,30.21,SSE,161,1.0,5.0,80,0.00,,,0.21,meteohub,2013-05-25 13:12:00,
2013-05-25 08:17:00,54.9,48.6,30.21,SSE,163,0.0,5.0,79,0.00,,,0.21,meteohub,2013-05-25 13:17:00,
2013-05-25 08:22:00,55.0,48.9,30.22,SSE,163,0.0,10.0,80,0.00,,,0.21,meteohub,2013-05-25 13:22:00,
2013-05-25 08:27:00,55.2,48.7,30.22,SSE,157,0.0,10.0,79,0.00,,,0.21,meteohub,2013-05-25 13:27:00,
2013-05-25 08:32:00,55.6,49.1,30.22,ESE,119,1.0,6.0,79,0.00,,,0.21,meteohub,2013-05-25 13:32:00,
2013-05-25 08:37:00,55.6,48.9,30.22,SSE,168,0.0,6.0,78,0.00,,,0.21,meteohub,2013-05-25 13:37:00,
2013-05-25 08:42:00,55.8,48.9,30.22,SSE,156,0.0,4.0,78,0.00,,,0.21,meteohub,2013-05-25 13:42:00,
2013-05-25 08:47:00,55.8,48.9,30.23,SSE,158,0.0,4.0,78,0.00,,,0.21,meteohub,2013-05-25 13:47:00,
2013-05-25 08:52:00,55.8,48.7,30.22,South,169,5.0,5.0,77,0.00,,,0.21,meteohub,2013-05-25 13:52:00,
2013-05-25 08:57:00,55.9,49.1,30.23,South,169,0.0,6.0,78,0.00,,,0.21,meteohub,2013-05-25 13:57:00,
2013-05-25 09:02:00,55.9,48.9,30.23,WSW,240,0.0,6.0,77,0.00,,,0.21,meteohub,2013-05-25 14:02:00,
2013-05-25 09:07:00,55.9,48.6,30.23,South,169,0.0,6.0,76,0.00,,,0.21,meteohub,2013-05-25 14:07:00,
2013-05-25 09:12:00,56.1,48.9,30.23,WSW,237,1.0,5.0,77,0.00,,,0.21,meteohub,2013-05-25 14:12:00,
2013-05-25 09:17:00,56.3,48.9,30.23,SE,137,0.0,6.0,76,0.00,,,0.21,meteohub,2013-05-25 14:17:00,
2013-05-25 09:22:00,56.3,48.9,30.23,SSE,165,1.0,6.0,76,0.00,,,0.21,meteohub,2013-05-25 14:22:00,
2013-05-25 09:27:00,56.5,48.7,30.22,South,190,2.0,6.0,75,0.00,,,0.21,meteohub,2013-05-25 14:27:00,
2013-05-25 09:32:00,56.8,48.9,30.22,South,173,0.0,4.0,75,0.00,,,0.21,meteohub,2013-05-25 14:32:00,
2013-05-25 09:37:00,57.2,48.6,30.22,SW,223,0.0,4.0,73,0.00,,,0.21,meteohub,2013-05-25 14:37:00,
2013-05-25 09:42:00,57.7,48.7,30.23,WNW,286,0.0,4.0,72,0.00,,,0.21,meteohub,2013-05-25 14:42:00,
2013-05-25 09:47:00,58.1,49.1,30.23,WNW,285,0.0,6.0,72,0.00,,,0.21,meteohub,2013-05-25 14:47:00,
2013-05-25 09:52:00,58.3,48.6,30.23,SSE,150,0.0,6.0,70,0.00,,,0.21,meteohub,2013-05-25 14:52:00,
2013-05-25 09:57:00,58.1,48.0,30.23,WSW,242,1.0,9.0,69,0.00,,,0.21,meteohub,2013-05-25 14:57:00,
2013-05-25 10:02:00,57.9,47.5,30.23,SSW,201,0.0,9.0,68,0.00,,,0.21,meteohub,2013-05-25 15:02:00,
2013-05-25 10:07:00,58.1,48.0,30.22,SW,223,1.0,5.0,69,0.00,,,0.21,meteohub,2013-05-25 15:07:00,
2013-05-25 10:12:00,58.3,48.2,30.23,SSW,213,0.0,5.0,69,0.00,,,0.21,meteohub,2013-05-25 15:12:00,
2013-05-25 10:18:00,58.5,48.0,30.22,NNW,327,0.0,5.0,68,0.00,,,0.21,meteohub,2013-05-25 15:18:00,
2013-05-25 10:23:00,58.8,48.7,30.22,West,266,0.0,9.0,69,0.00,,,0.21,meteohub,2013-05-25 15:23:00,
2013-05-25 10:28:00,58.6,48.2,30.22,ESE,118,2.0,9.0,68,0.00,,,0.21,meteohub,2013-05-25 15:28:00,
2013-05-25 10:33:00,58.5,48.4,30.22,WSW,248,1.0,11.0,69,0.00,,,0.21,meteohub,2013-05-25 15:33:00,
2013-05-25 10:38:00,58.5,48.4,30.22,South,172,0.0,11.0,69,0.00,,,0.21,meteohub,2013-05-25 15:38:00,
2013-05-25 10:43:00,58.6,48.6,30.22,SSW,194,2.0,9.0,69,0.00,,,0.21,meteohub,2013-05-25 15:43:00,
2013-05-25 10:48:00,59.0,48.9,30.22,SSW,195,0.0,10.0,69,0.00,,,0.21,meteohub,2013-05-25 15:48:00,
2013-05-25 10:53:00,59.2,48.2,30.22,South,188,3.0,10.0,67,0.00,,,0.21,meteohub,2013-05-25 15:53:00,
2013-05-25 10:58:00,59.4,49.1,30.23,WSW,248,0.0,5.0,69,0.00,,,0.21,meteohub,2013-05-25 15:58:00,
2013-05-25 11:03:00,59.4,48.7,30.23,NNW,336,0.0,5.0,68,0.00,,,0.21,meteohub,2013-05-25 16:03:00,
2013-05-25 11:08:00,59.4,48.7,30.22,SSE,156,1.0,5.0,68,0.00,,,0.21,meteohub,2013-05-25 16:08:00,
2013-05-25 11:13:00,59.4,48.4,30.22,North,9,0.0,4.0,67,0.00,,,0.21,meteohub,2013-05-25 16:13:00,
2013-05-25 11:18:00,59.4,48.7,30.22,West,267,0.0,4.0,68,0.00,,,0.21,meteohub,2013-05-25 16:18:00,
2013-05-25 11:23:00,59.2,47.8,30.23,SSW,200,0.0,10.0,66,0.00,,,0.21,meteohub,2013-05-25 16:23:00,
2013-05-25 11:28:00,59.0,47.7,30.23,WSW,241,2.0,10.0,66,0.00,,,0.21,meteohub,2013-05-25 16:28:00,
2013-05-25 11:34:00,59.0,47.7,30.24,SW,214,0.0,10.0,66,0.00,,,0.21,meteohub,2013-05-25 16:34:00,
2013-05-25 11:39:00,59.0,47.7,30.24,SSW,199,0.0,7.0,66,0.00,,,0.21,meteohub,2013-05-25 16:39:00,
2013-05-25 11:44:00,59.0,47.7,30.24,SSW,200,0.0,7.0,66,0.00,,,0.21,meteohub,2013-05-25 16:44:00,
2013-05-25 11:49:00,59.0,47.3,30.24,SSW,197,0.0,4.0,65,0.00,,,0.21,meteohub,2013-05-25 16:49:00,
2013-05-25 11:54:00,59.0,47.7,30.24,NW,316,0.0,4.0,66,0.00,,,0.21,meteohub,2013-05-25 16:54:00,
2013-05-25 11:59:00,59.0,47.3,30.25,SSW,196,0.0,5.0,65,0.00,,,0.21,meteohub,2013-05-25 16:59:00,
2013-05-25 12:04:00,59.0,47.7,30.25,NNW,334,0.0,5.0,66,0.00,,,0.21,meteohub,2013-05-25 17:04:00,
2013-05-25 12:09:00,59.2,47.8,30.25,West,277,1.0,5.0,66,0.00,,,0.21,meteohub,2013-05-25 17:09:00,
2013-05-25 12:14:00,59.0,47.3,30.25,SSE,166,3.0,5.0,65,0.00,,,0.21,meteohub,2013-05-25 17:14:00,
2013-05-25 12:19:00,59.0,47.7,30.24,SW,232,0.0,6.0,66,0.00,,,0.21,meteohub,2013-05-25 17:19:00,
2013-05-25 12:24:00,59.0,47.3,30.25,SW,232,0.0,6.0,65,0.00,,,0.21,meteohub,2013-05-25 17:24:00,
2013-05-25 12:29:00,59.0,47.7,30.24,West,263,0.0,6.0,66,0.00,,,0.21,meteohub,2013-05-25 17:29:00,
2013-05-25 12:34:00,59.0,47.3,30.25,WNW,291,1.0,6.0,65,0.00,,,0.21,meteohub,2013-05-25 17:34:00,
2013-05-25 12:39:00,59.0,47.3,30.25,NW,323,0.0,6.0,65,0.00,,,0.21,meteohub,2013-05-25 17:39:00,
2013-05-25 12:44:00,58.6,46.9,30.25,SSW,199,1.0,10.0,65,0.00,,,0.21,meteohub,2013-05-25 17:44:00,
2013-05-25 12:50:00,58.6,47.3,30.25,ENE,70,0.0,10.0,66,0.00,,,0.21,meteohub,2013-05-25 17:50:00,
2013-05-25 12:55:00,58.8,47.5,30.25,East,87,3.0,10.0,66,0.00,,,0.21,meteohub,2013-05-25 17:55:00,
2013-05-25 13:00:00,58.6,47.3,30.25,NNW,344,1.0,6.0,66,0.00,,,0.21,meteohub,2013-05-25 18:00:00,
2013-05-25 13:05:00,59.0,48.4,30.25,SSW,208,0.0,5.0,68,0.00,,,0.21,meteohub,2013-05-25 18:05:00,
2013-05-25 13:10:00,59.0,48.0,30.25,WNW,292,1.0,5.0,67,0.00,,,0.21,meteohub,2013-05-25 18:10:00,
2013-05-25 13:15:00,58.6,47.7,30.25,South,183,0.0,4.0,67,0.00,,,0.21,meteohub,2013-05-25 18:15:00,
2013-05-25 13:20:00,58.6,48.6,30.25,SSW,194,4.0,10.0,69,0.00,,,0.21,meteohub,2013-05-25 18:20:00,
2013-05-25 13:25:00,58.8,48.7,30.25,SSE,166,3.0,6.0,69,0.00,,,0.21,meteohub,2013-05-25 18:25:00,
2013-05-25 13:30:00,58.5,48.4,30.25,West,264,0.0,9.0,69,0.00,,,0.21,meteohub,2013-05-25 18:30:00,
2013-05-25 13:35:00,58.3,48.6,30.25,SSW,212,1.0,9.0,70,0.00,,,0.21,meteohub,2013-05-25 18:35:00,
2013-05-25 13:40:00,58.3,48.9,30.25,SW,232,0.0,9.0,71,0.00,,,0.21,meteohub,2013-05-25 18:40:00,
2013-05-25 13:45:00,58.1,48.7,30.25,South,178,1.0,6.0,71,0.00,,,0.21,meteohub,2013-05-25 18:45:00,
2013-05-25 13:50:00,58.3,48.6,30.24,SSW,200,4.0,6.0,70,0.00,,,0.21,meteohub,2013-05-25 18:50:00,
2013-05-25 13:55:00,58.5,48.7,30.24,South,175,0.0,6.0,70,0.00,,,0.21,meteohub,2013-05-25 18:55:00,
2013-05-25 14:00:00,58.6,49.3,30.24,WNW,302,0.0,7.0,71,0.00,,,0.21,meteohub,2013-05-25 19:00:00,
2013-05-25 14:06:00,58.6,49.3,30.24,WSW,244,0.0,7.0,71,0.00,,,0.21,meteohub,2013-05-25 19:06:00,
2013-05-25 14:11:00,59.0,49.6,30.24,SSE,162,0.0,5.0,71,0.00,,,0.21,meteohub,2013-05-25 19:11:00,
2013-05-25 14:16:00,59.4,49.6,30.24,NW,321,1.0,6.0,70,0.00,,,0.21,meteohub,2013-05-25 19:16:00,
2013-05-25 14:21:00,59.0,49.6,30.24,South,184,0.0,6.0,71,0.00,,,0.21,meteohub,2013-05-25 19:21:00,
2013-05-25 14:26:00,58.5,49.5,30.24,SSW,202,0.0,9.0,72,0.00,,,0.21,meteohub,2013-05-25 19:26:00,
2013-05-25 14:31:00,58.5,50.2,30.25,West,280,0.0,9.0,74,0.00,,,0.21,meteohub,2013-05-25 19:31:00,
2013-05-25 14:36:00,58.3,49.6,30.25,South,179,3.0,9.0,73,0.00,,,0.21,meteohub,2013-05-25 19:36:00,
2013-05-25 14:41:00,57.7,49.1,30.25,SW,217,0.0,7.0,73,0.00,,,0.21,meteohub,2013-05-25 19:41:00,
2013-05-25 14:46:00,57.7,49.5,30.25,WSW,248,2.0,9.0,74,0.00,,,0.21,meteohub,2013-05-25 19:46:00,
2013-05-25 14:51:00,57.7,49.5,30.25,WSW,253,2.0,9.0,74,0.00,,,0.21,meteohub,2013-05-25 19:51:00,
2013-05-25 14:56:00,57.6,49.3,30.25,WSW,250,0.0,9.0,74,0.00,,,0.21,meteohub,2013-05-25 19:56:00,
2013-05-25 15:01:00,57.6,49.3,30.25,South,179,1.0,5.0,74,0.00,,,0.21,meteohub,2013-05-25 20:01:00,
2013-05-25 15:07:00,57.6,49.3,30.24,SSW,195,3.0,11.0,74,0.00,,,0.21,meteohub,2013-05-25 20:07:00,
2013-05-25 15:12:00,57.4,49.1,30.25,SSE,167,0.0,11.0,74,0.00,,,0.21,meteohub,2013-05-25 20:12:00,
2013-05-25 15:17:00,57.4,49.1,30.25,SSE,166,1.0,11.0,74,0.00,,,0.21,meteohub,2013-05-25 20:17:00,
2013-05-25 15:22:00,57.6,49.6,30.24,West,261,0.0,6.0,75,0.00,,,0.21,meteohub,2013-05-25 20:22:00,
2013-05-25 15:27:00,57.7,49.8,30.25,WNW,284,0.0,5.0,75,0.00,,,0.21,meteohub,2013-05-25 20:27:00,
2013-05-25 15:32:00,57.4,49.1,30.25,ENE,57,0.0,7.0,74,0.00,,,0.21,meteohub,2013-05-25 20:32:00,
2013-05-25 15:37:00,57.4,49.1,30.24,South,169,0.0,7.0,74,0.00,,,0.21,meteohub,2013-05-25 20:37:00,
2013-05-25 15:42:00,57.4,49.5,30.24,South,171,0.0,7.0,75,0.00,,,0.21,meteohub,2013-05-25 20:42:00,
2013-05-25 15:47:00,57.4,49.1,30.25,SW,222,0.0,6.0,74,0.00,,,0.21,meteohub,2013-05-25 20:47:00,
2013-05-25 15:52:00,57.6,49.6,30.25,South,176,0.0,9.0,75,0.00,,,0.21,meteohub,2013-05-25 20:52:00,
2013-05-25 15:57:00,57.4,49.1,30.24,WSW,257,1.0,9.0,74,0.00,,,0.21,meteohub,2013-05-25 20:57:00,
2013-05-25 16:02:00,57.6,49.6,30.24,West,274,0.0,5.0,75,0.00,,,0.21,meteohub,2013-05-25 21:02:00,
2013-05-25 16:07:00,57.6,49.6,30.24,West,280,0.0,5.0,75,0.00,,,0.21,meteohub,2013-05-25 21:07:00,
2013-05-25 16:12:00,57.7,49.8,30.24,SSW,200,1.0,5.0,75,0.00,,,0.21,meteohub,2013-05-25 21:12:00,
2013-05-25 16:17:00,57.6,48.9,30.24,SSW,200,3.0,7.0,73,0.00,,,0.21,meteohub,2013-05-25 21:17:00,
2013-05-25 16:22:00,57.6,48.9,30.24,WNW,294,0.0,9.0,73,0.00,,,0.21,meteohub,2013-05-25 21:22:00,
2013-05-25 16:27:00,57.4,48.7,30.23,SSW,203,1.0,9.0,73,0.00,,,0.21,meteohub,2013-05-25 21:27:00,
2013-05-25 16:32:00,57.4,48.7,30.23,South,189,4.0,6.0,73,0.00,,,0.21,meteohub,2013-05-25 21:32:00,
2013-05-25 16:37:00,57.4,48.7,30.23,SW,221,1.0,5.0,73,0.00,,,0.21,meteohub,2013-05-25 21:37:00,
2013-05-25 16:42:00,57.4,49.1,30.23,SSE,155,5.0,5.0,74,0.00,,,0.21,meteohub,2013-05-25 21:42:00,
2013-05-25 16:47:00,57.6,48.9,30.23,South,176,0.0,5.0,73,0.00,,,0.21,meteohub,2013-05-25 21:47:00,
2013-05-25 16:52:00,57.6,49.3,30.23,SE,140,2.0,5.0,74,0.00,,,0.21,meteohub,2013-05-25 21:52:00,
2013-05-25 16:57:00,57.6,49.3,30.23,South,175,0.0,5.0,74,0.00,,,0.21,meteohub,2013-05-25 21:57:00,
2013-05-25 17:02:00,57.6,49.3,30.23,SW,214,1.0,5.0,74,0.00,,,0.21,meteohub,2013-05-25 22:02:00,
2013-05-25 17:07:00,57.4,49.1,30.23,SW,214,1.0,5.0,74,0.00,,,0.21,meteohub,2013-05-25 22:07:00,
2013-05-25 17:12:00,57.4,49.1,30.23,SE,137,0.0,6.0,74,0.00,,,0.21,meteohub,2013-05-25 22:12:00,
2013-05-25 17:17:00,57.4,49.1,30.23,SSE,160,0.0,6.0,74,0.00,,,0.21,meteohub,2013-05-25 22:17:00,
2013-05-25 17:22:00,57.4,49.5,30.23,SW,225,0.0,6.0,75,0.00,,,0.21,meteohub,2013-05-25 22:22:00,
2013-05-25 17:27:00,57.4,49.1,30.23,SW,218,0.0,5.0,74,0.00,,,0.21,meteohub,2013-05-25 22:27:00,
2013-05-25 17:32:00,57.4,49.5,30.23,SW,219,0.0,5.0,75,0.00,,,0.21,meteohub,2013-05-25 22:32:00,
2013-05-25 17:37:00,57.4,49.5,30.23,NW,311,0.0,2.0,75,0.00,,,0.21,meteohub,2013-05-25 22:37:00,
2013-05-25 17:42:00,57.2,49.3,30.23,WNW,283,0.0,6.0,75,0.00,,,0.21,meteohub,2013-05-25 22:42:00,
2013-05-25 17:47:00,57.0,49.1,30.23,ESE,123,1.0,6.0,75,0.00,,,0.21,meteohub,2013-05-25 22:47:00,
2013-05-25 17:52:00,57.0,49.5,30.23,ESE,122,0.0,5.0,76,0.00,,,0.21,meteohub,2013-05-25 22:52:00,
2013-05-25 17:57:00,56.8,49.3,30.23,South,173,0.0,5.0,76,0.00,,,0.21,meteohub,2013-05-25 22:57:00,
2013-05-25 18:02:00,56.7,49.1,30.23,North,10,0.0,3.0,76,0.00,,,0.21,meteohub,2013-05-25 23:02:00,
2013-05-25 18:07:00,56.7,49.1,30.23,NNE,19,0.0,4.0,76,0.00,,,0.21,meteohub,2013-05-25 23:07:00,
2013-05-25 18:12:00,56.7,49.5,30.23,North,349,0.0,4.0,77,0.00,,,0.21,meteohub,2013-05-25 23:12:00,
2013-05-25 18:17:00,56.5,49.3,30.23,NNW,342,0.0,3.0,77,0.00,,,0.21,meteohub,2013-05-25 23:17:00,
2013-05-25 18:22:00,56.5,49.3,30.22,NNW,342,0.0,3.0,77,0.00,,,0.21,meteohub,2013-05-25 23:22:00,
2013-05-25 18:27:00,56.5,48.9,30.22,WSW,254,0.0,3.0,76,0.00,,,0.21,meteohub,2013-05-25 23:27:00,
2013-05-25 18:32:00,56.3,48.6,30.22,SE,133,1.0,4.0,75,0.00,,,0.21,meteohub,2013-05-25 23:32:00,
2013-05-25 18:37:00,56.3,48.6,30.22,WNW,284,0.0,4.0,75,0.00,,,0.21,meteohub,2013-05-25 23:37:00,
2013-05-25 18:42:00,56.3,48.6,30.22,West,280,0.0,9.0,75,0.00,,,0.21,meteohub,2013-05-25 23:42:00,
2013-05-25 18:47:00,56.1,48.0,30.22,West,281,0.0,9.0,74,0.00,,,0.21,meteohub,2013-05-25 23:47:00,
2013-05-25 18:52:00,56.1,48.4,30.22,West,280,0.0,9.0,75,0.00,,,0.21,meteohub,2013-05-25 23:52:00,
2013-05-25 18:57:00,56.1,48.4,30.22,NW,326,0.0,5.0,75,0.00,,,0.21,meteohub,2013-05-25 23:57:00,
2013-05-25 19:02:00,56.1,48.4,30.22,NW,326,0.0,5.0,75,0.00,,,0.21,meteohub,2013-05-26 00:02:00,
2013-05-25 19:07:00,56.1,48.4,30.22,NW,321,0.0,5.0,75,0.00,,,0.00,meteohub,2013-05-26 00:07:00,
2013-05-25 19:12:00,56.1,48.4,30.22,NW,319,0.0,2.0,75,0.00,,,0.00,meteohub,2013-05-26 00:12:00,
2013-05-25 19:17:00,56.1,48.4,30.22,WNW,294,0.0,3.0,75,0.00,,,0.00,meteohub,2013-05-26 00:17:00,
2013-05-25 19:22:00,55.9,48.2,30.22,WNW,294,0.0,3.0,75,0.00,,,0.00,meteohub,2013-05-26 00:22:00,
2013-05-25 19:27:00,55.9,48.2,30.23,WNW,292,0.0,3.0,75,0.00,,,0.00,meteohub,2013-05-26 00:27:00,
2013-05-25 19:32:00,55.9,48.2,30.23,WNW,293,0.0,2.0,75,0.00,,,0.00,meteohub,2013-05-26 00:32:00,
2013-05-25 19:37:00,55.9,48.2,30.23,WNW,292,0.0,1.0,75,0.00,,,0.00,meteohub,2013-05-26 00:37:00,
2013-05-25 19:42:00,55.9,48.6,30.23,WNW,292,0.0,1.0,76,0.00,,,0.00,meteohub,2013-05-26 00:42:00,
2013-05-25 19:47:00,55.8,48.4,30.22,WNW,293,0.0,1.0,76,0.00,,,0.00,meteohub,2013-05-26 00:47:00,
2013-05-25 19:53:00,55.8,48.4,30.23,WNW,292,0.0,1.0,76,0.00,,,0.00,meteohub,2013-05-26 00:53:00,
2013-05-25 19:58:00,55.8,48.4,30.23,WNW,293,0.0,1.0,76,0.00,,,0.00,meteohub,2013-05-26 00:58:00,
2013-05-25 20:03:00,55.8,48.7,30.23,NW,317,0.0,1.0,77,0.00,,,0.00,meteohub,2013-05-26 01:03:00,
2013-05-25 20:08:00,55.8,48.4,30.23,NW,317,0.0,4.0,76,0.00,,,0.00,meteohub,2013-05-26 01:08:00,
2013-05-25 20:13:00,55.8,48.4,30.22,SE,140,0.0,4.0,76,0.00,,,0.00,meteohub,2013-05-26 01:13:00,
2013-05-25 20:18:00,55.8,48.4,30.22,SE,140,0.0,4.0,76,0.00,,,0.00,meteohub,2013-05-26 01:18:00,
2013-05-25 20:23:00,55.8,48.4,30.22,SE,134,0.0,4.0,76,0.00,,,0.00,meteohub,2013-05-26 01:23:00,
2013-05-25 20:28:00,55.8,48.7,30.22,SE,134,0.0,4.0,77,0.00,,,0.00,meteohub,2013-05-26 01:28:00,
2013-05-25 20:33:00,55.8,48.7,30.22,SW,235,0.0,2.0,77,0.00,,,0.00,meteohub,2013-05-26 01:33:00,
2013-05-25 20:38:00,55.8,48.7,30.22,SW,234,0.0,2.0,77,0.00,,,0.00,meteohub,2013-05-26 01:38:00,
2013-05-25 20:43:00,55.8,48.7,30.22,SW,234,0.0,3.0,77,0.00,,,0.00,meteohub,2013-05-26 01:43:00,
2013-05-25 20:48:00,55.8,48.7,30.22,SW,235,0.0,3.0,77,0.00,,,0.00,meteohub,2013-05-26 01:48:00,
2013-05-25 20:53:00,55.8,48.4,30.22,SW,233,1.0,1.0,76,0.00,,,0.00,meteohub,2013-05-26 01:53:00,
2013-05-25 20:58:00,55.8,48.4,30.22,SW,233,0.0,1.0,76,0.00,,,0.00,meteohub,2013-05-26 01:58:00,
2013-05-25 21:04:00,55.8,48.4,30.22,SW,233,0.0,1.0,76,0.00,,,0.00,meteohub,2013-05-26 02:04:00,
2013-05-25 21:09:00,55.8,48.4,30.22,NNW,336,1.0,1.0,76,0.00,,,0.00,meteohub,2013-05-26 02:09:00,
2013-05-25 21:14:00,55.8,48.0,30.22,SSE,161,0.0,3.0,75,0.00,,,0.00,meteohub,2013-05-26 02:14:00,
2013-05-25 21:19:00,55.9,48.2,30.22,SSE,161,0.0,3.0,75,0.00,,,0.00,meteohub,2013-05-26 02:19:00,
2013-05-25 21:24:00,55.9,48.2,30.22,SSE,161,0.0,3.0,75,0.00,,,0.00,meteohub,2013-05-26 02:24:00,
2013-05-25 21:29:00,55.9,48.2,30.22,SSE,161,0.0,3.0,75,0.00,,,0.00,meteohub,2013-05-26 02:29:00,
2013-05-25 21:34:00,55.9,48.2,30.22,SSE,161,0.0,2.0,75,0.00,,,0.00,meteohub,2013-05-26 02:34:00,
2013-05-25 21:39:00,55.9,48.2,30.22,SSE,161,0.0,1.0,75,0.00,,,0.00,meteohub,2013-05-26 02:39:00,
2013-05-25 21:44:00,55.9,48.6,30.23,SSE,161,0.0,1.0,76,0.00,,,0.00,meteohub,2013-05-26 02:44:00,
2013-05-25 21:49:00,55.9,48.6,30.23,SSE,161,0.0,1.0,76,0.00,,,0.00,meteohub,2013-05-26 02:49:00,
2013-05-25 21:54:00,55.8,48.4,30.23,SSE,161,0.0,0.0,76,0.00,,,0.00,meteohub,2013-05-26 02:54:00,
2013-05-25 21:59:00,55.8,48.4,30.23,SSE,161,0.0,0.0,76,0.00,,,0.00,meteohub,2013-05-26 02:59:00,
2013-05-25 22:04:00,55.8,48.4,30.23,SSE,161,0.0,0.0,76,0.00,,,0.00,meteohub,2013-05-26 03:04:00,
2013-05-25 22:09:00,55.9,48.2,30.23,SSE,161,0.0,1.0,75,0.00,,,0.00,meteohub,2013-05-26 03:09:00,
2013-05-25 22:14:00,55.9,48.6,30.23,SSE,161,0.0,1.0,76,0.00,,,0.00,meteohub,2013-05-26 03:14:00,
2013-05-25 22:20:00,55.9,48.6,30.23,SSE,161,0.0,4.0,76,0.00,,,0.00,meteohub,2013-05-26 03:20:00,
2013-05-25 22:25:00,55.9,48.2,30.23,SSE,161,0.0,4.0,75,0.00,,,0.00,meteohub,2013-05-26 03:25:00,
2013-05-25 22:30:00,55.9,47.8,30.23,SSE,161,0.0,4.0,74,0.00,,,0.00,meteohub,2013-05-26 03:30:00,
2013-05-25 22:35:00,55.9,47.1,30.23,SSE,167,0.0,3.0,72,0.00,,,0.00,meteohub,2013-05-26 03:35:00,
2013-05-25 22:40:00,56.1,47.3,30.23,SSE,150,0.0,4.0,72,0.00,,,0.00,meteohub,2013-05-26 03:40:00,
2013-05-25 22:45:00,55.9,46.2,30.24,South,173,0.0,4.0,70,0.00,,,0.00,meteohub,2013-05-26 03:45:00,
2013-05-25 22:50:00,55.9,46.2,30.23,South,190,0.0,4.0,70,0.00,,,0.00,meteohub,2013-05-26 03:50:00,
2013-05-25 22:55:00,55.9,45.9,30.24,SE,135,0.0,4.0,69,0.00,,,0.00,meteohub,2013-05-26 03:55:00,
2013-05-25 23:00:00,55.9,45.5,30.24,SE,134,0.0,1.0,68,0.00,,,0.00,meteohub,2013-05-26 04:00:00,
2013-05-25 23:01:00,55.9,45.5,30.24,SE,134,0.0,1.0,68,0.00,,,0.00,meteohub,2013-05-26 04:01:00,
2013-05-25 23:02:00,55.9,45.1,30.24,SE,134,0.0,1.0,67,0.00,,,0.00,meteohub,2013-05-26 04:02:00,
2013-05-25 23:04:00,55.9,45.1,30.24,ENE,65,0.0,1.0,67,0.00,,,0.00,meteohub,2013-05-26 04:04:00,
2013-05-25 23:08:00,55.9,45.1,30.24,ENE,64,0.0,1.0,67,0.00,,,0.00,meteohub,2013-05-26 04:08:00,
2013-05-25 23:13:00,55.8,45.0,30.24,NNE,30,0.0,1.0,67,0.00,,,0.00,meteohub,2013-05-26 04:13:00,
2013-05-25 23:18:00,55.8,44.6,30.24,WSW,246,0.0,1.0,66,0.00,,,0.00,meteohub,2013-05-26 04:18:00,
2013-05-25 23:23:00,55.8,44.6,30.24,WSW,246,0.0,2.0,66,0.00,,,0.00,meteohub,2013-05-26 04:23:00,
2013-05-25 23:28:00,55.6,44.1,30.23,SW,226,1.0,2.0,65,0.00,,,0.00,meteohub,2013-05-26 04:28:00,
2013-05-25 23:33:00,55.6,44.1,30.23,SW,227,0.0,6.0,65,0.00,,,0.00,meteohub,2013-05-26 04:33:00,
2013-05-25 23:38:00,55.6,44.4,30.22,SSW,202,0.0,6.0,66,0.00,,,0.00,meteohub,2013-05-26 04:38:00,
2013-05-25 23:43:00,55.4,44.2,30.22,SSW,202,0.0,6.0,66,0.00,,,0.00,meteohub,2013-05-26 04:43:00,
2013-05-25 23:48:00,55.2,44.1,30.22,SSW,202,0.0,3.0,66,0.00,,,0.00,meteohub,2013-05-26 04:48:00,
2013-05-25 23:53:00,55.2,44.4,30.22,SSW,200,0.0,1.0,67,0.00,,,0.00,meteohub,2013-05-26 04:53:00,
2013-05-25 23:58:00,55.0,44.2,30.22,SE,145,0.0,2.0,67,0.00,,,0.00,meteohub,2013-05-26 04:58:00,